Hauptseite
METAR-TAF:

METAR-TAF

Flughäfen :

Belgrad, Serbien

Nikola-Tesla-Flughafen Belgrad

Breite: 44-49N, Länge: 020-17E, Höhe: 96 m

Beobachtung

Neuester Wetterbericht von vor 39 Minuten, um 02:00 UTC
Wind 5 kt aus West
Temperatur 14°C
Luftfeuchtigkeit 88%
Luftdruck 1012 hPa
Sichtweite 10 km oder mehr
keine Wolken unter 1500 m und keine Kumulonimbus oder Gewitterwolken

METAR: LYBE 280200Z 26005KT CAVOK 14/12 Q1012 NOSIG

Zeit: 04:39 (02:39 UTC)

Prognose

Neuester Wetterbericht von vor 3 Stunden und 39 Minuten, um 23:00 UTC
Gültige Prognose vom 28 um 00 UTC bis 28 um 24 UTC
Wind 8 kt aus West/Nordwest
Sichtweite 10 km oder mehr
Aufgelockert bewölkt in der Höhe von 4000 ft

TAF: LYBE 272300Z 2800/2824 29008KT 9999 SCT040 TX29/2814Z TN14/2804Z

Wetterbeobachtungen und Prognosen von mehr als 4000 Flughäfen (METAR und TAF Bericht).

Die verfügbaren Stationen werden durch gelbe und rote Markierungen auf der Karte dargestellt.

Führen Sie die Maus auf sie, um den Namen der Station zu sehen.

Darauf klicken, um die Beobachtung von Wetterbeobachtungen und Prognosen zu sehen.

Um die Karte zu ändern : klicken Sie auf den grünen Tasten mit einem schwarzen Kreuz Zum Vergrößern, auf den grünen Button mit einem Gedankenstrich zu verkleinern, oder auf die grünen Pfeile für benachbarte Karten.


METAR-TAF: